sensor_id;sensor_type;location;lat;lon;timestamp;pressure;altitude;pressure_sealevel;temperature;humidity
49122;BME280;35529;44.342;25.944;2022-11-02T00:01:26;101089.25;;;10.92;100.00
49122;BME280;35529;44.342;25.944;2022-11-02T00:03:53;101083.94;;;10.92;100.00
49122;BME280;35529;44.342;25.944;2022-11-02T00:06:19;101082.09;;;10.93;100.00
49122;BME280;35529;44.342;25.944;2022-11-02T00:08:45;101075.13;;;10.92;100.00
49122;BME280;35529;44.342;25.944;2022-11-02T00:11:11;101076.97;;;10.91;100.00
49122;BME280;35529;44.342;25.944;2022-11-02T00:16:41;101082.00;;;10.86;100.00
49122;BME280;35529;44.342;25.944;2022-11-02T00:19:07;101077.06;;;10.83;100.00
49122;BME280;35529;44.342;25.944;2022-11-02T00:21:34;101074.78;;;10.80;100.00
49122;BME280;35529;44.342;25.944;2022-11-02T00:24:01;101074.31;;;10.76;100.00
49122;BME280;35529;44.342;25.944;2022-11-02T00:26:28;101072.03;;;10.73;100.00
49122;BME280;35529;44.342;25.944;2022-11-02T00:31:59;101073.75;;;10.66;100.00
49122;BME280;35529;44.342;25.944;2022-11-02T00:34:25;101071.28;;;10.64;100.00
49122;BME280;35529;44.342;25.944;2022-11-02T00:36:52;101069.63;;;10.63;100.00
49122;BME280;35529;44.342;25.944;2022-11-02T00:39:18;101070.28;;;10.65;100.00
49122;BME280;35529;44.342;25.944;2022-11-02T00:41:44;101074.59;;;10.66;100.00
49122;BME280;35529;44.342;25.944;2022-11-02T00:44:11;101073.22;;;10.70;100.00
49122;BME280;35529;44.342;25.944;2022-11-02T00:46:37;101068.53;;;10.72;100.00
49122;BME280;35529;44.342;25.944;2022-11-02T00:49:03;101062.22;;;10.73;100.00
49122;BME280;35529;44.342;25.944;2022-11-02T00:51:29;101063.69;;;10.76;100.00
49122;BME280;35529;44.342;25.944;2022-11-02T00:53:55;101053.88;;;10.77;100.00
49122;BME280;35529;44.342;25.944;2022-11-02T00:56:21;101054.72;;;10.77;100.00
49122;BME280;35529;44.342;25.944;2022-11-02T00:58:47;101048.22;;;10.80;100.00
49122;BME280;35529;44.342;25.944;2022-11-02T01:01:13;101057.28;;;10.85;100.00
49122;BME280;35529;44.342;25.944;2022-11-02T01:03:39;101042.16;;;10.86;100.00
49122;BME280;35529;44.342;25.944;2022-11-02T01:06:09;101042.16;;;10.86;100.00
49122;BME280;35529;44.342;25.944;2022-11-02T01:08:36;101036.22;;;10.84;100.00
49122;BME280;35529;44.342;25.944;2022-11-02T01:11:15;101044.72;;;10.94;100.00
49122;BME280;35529;44.342;25.944;2022-11-02T01:13:42;101033.75;;;10.97;100.00
49122;BME280;35529;44.342;25.944;2022-11-02T01:16:08;101033.34;;;11.00;100.00
49122;BME280;35529;44.342;25.944;2022-11-02T01:18:35;101038.09;;;11.05;100.00
49122;BME280;35529;44.342;25.944;2022-11-02T01:21:01;101036.28;;;11.05;100.00
49122;BME280;35529;44.342;25.944;2022-11-02T01:23:30;101039.56;;;11.07;100.00
49122;BME280;35529;44.342;25.944;2022-11-02T01:25:57;101028.94;;;11.07;100.00
49122;BME280;35529;44.342;25.944;2022-11-02T01:28:24;101024.81;;;11.05;100.00
49122;BME280;35529;44.342;25.944;2022-11-02T01:30:50;101037.19;;;11.13;100.00
49122;BME280;35529;44.342;25.944;2022-11-02T01:33:16;101017.56;;;11.14;100.00
49122;BME280;35529;44.342;25.944;2022-11-02T01:35:42;101020.88;;;11.16;100.00
49122;BME280;35529;44.342;25.944;2022-11-02T01:38:08;101022.06;;;11.13;100.00
49122;BME280;35529;44.342;25.944;2022-11-02T01:40:37;101022.88;;;11.14;100.00
49122;BME280;35529;44.342;25.944;2022-11-02T01:43:20;101016.75;;;11.13;100.00
49122;BME280;35529;44.342;25.944;2022-11-02T01:45:46;101019.78;;;11.10;100.00
49122;BME280;35529;44.342;25.944;2022-11-02T01:48:13;101015.50;;;11.09;100.00
49122;BME280;35529;44.342;25.944;2022-11-02T01:50:39;101018.31;;;11.07;100.00
49122;BME280;35529;44.342;25.944;2022-11-02T01:53:06;101015.84;;;11.06;100.00
49122;BME280;35529;44.342;25.944;2022-11-02T01:55:32;101014.03;;;11.06;100.00
49122;BME280;35529;44.342;25.944;2022-11-02T01:58:03;101023.00;;;11.05;100.00
49122;BME280;35529;44.342;25.944;2022-11-02T02:00:32;101011.72;;;11.03;100.00
49122;BME280;35529;44.342;25.944;2022-11-02T02:03:09;101008.44;;;11.01;100.00
49122;BME280;35529;44.342;25.944;2022-11-02T02:05:39;101005.97;;;11.00;100.00
49122;BME280;35529;44.342;25.944;2022-11-02T02:08:06;101015.75;;;10.99;100.00
49122;BME280;35529;44.342;25.944;2022-11-02T02:10:34;101010.81;;;10.96;100.00
49122;BME280;35529;44.342;25.944;2022-11-02T02:13:02;100995.28;;;10.93;100.00
49122;BME280;35529;44.342;25.944;2022-11-02T02:15:31;101006.91;;;10.92;100.00
49122;BME280;35529;44.342;25.944;2022-11-02T02:18:05;100997.28;;;10.91;100.00
49122;BME280;35529;44.342;25.944;2022-11-02T02:28:41;100991.97;;;10.91;100.00
49122;BME280;35529;44.342;25.944;2022-11-02T02:31:15;100989.50;;;10.89;100.00
49122;BME280;35529;44.342;25.944;2022-11-02T02:36:31;100985.25;;;10.95;100.00
49122;BME280;35529;44.342;25.944;2022-11-02T02:44:00;100986.81;;;11.04;100.00
49122;BME280;35529;44.342;25.944;2022-11-02T02:46:29;100982.13;;;11.06;100.00
49122;BME280;35529;44.342;25.944;2022-11-02T02:48:58;100977.44;;;11.09;100.00
49122;BME280;35529;44.342;25.944;2022-11-02T02:51:28;100971.94;;;11.10;100.00
49122;BME280;35529;44.342;25.944;2022-11-02T02:56:24;100971.50;;;11.06;100.00
49122;BME280;35529;44.342;25.944;2022-11-02T02:58:57;100973.25;;;10.99;100.00
49122;BME280;35529;44.342;25.944;2022-11-02T03:01:25;100962.47;;;10.86;100.00
49122;BME280;35529;44.342;25.944;2022-11-02T03:03:52;100963.16;;;10.73;100.00
49122;BME280;35529;44.342;25.944;2022-11-02T03:06:31;100957.47;;;10.61;100.00
49122;BME280;35529;44.342;25.944;2022-11-02T03:11:26;100965.38;;;10.39;100.00
49122;BME280;35529;44.342;25.944;2022-11-02T03:24:07;100969.09;;;10.30;100.00
49122;BME280;35529;44.342;25.944;2022-11-02T03:26:51;100967.81;;;10.26;100.00
49122;BME280;35529;44.342;25.944;2022-11-02T03:29:24;100970.63;;;10.24;100.00
49122;BME280;35529;44.342;25.944;2022-11-02T03:32:01;100959.19;;;10.24;100.00
49122;BME280;35529;44.342;25.944;2022-11-02T03:34:40;100963.84;;;10.22;100.00
49122;BME280;35529;44.342;25.944;2022-11-02T03:40:25;100956.91;;;10.21;100.00
49122;BME280;35529;44.342;25.944;2022-11-02T03:42:44;100962.41;;;10.19;100.00
49122;BME280;35529;44.342;25.944;2022-11-02T03:45:14;100955.44;;;10.18;100.00
49122;BME280;35529;44.342;25.944;2022-11-02T03:47:43;100958.72;;;10.20;100.00
49122;BME280;35529;44.342;25.944;2022-11-02T03:50:11;100969.69;;;10.17;100.00
49122;BME280;35529;44.342;25.944;2022-11-02T03:52:40;100976.00;;;10.16;100.00
49122;BME280;35529;44.342;25.944;2022-11-02T03:57:34;100968.72;;;10.18;100.00
49122;BME280;35529;44.342;25.944;2022-11-02T04:00:09;100968.03;;;10.16;100.00
49122;BME280;35529;44.342;25.944;2022-11-02T04:02:36;100973.34;;;10.16;100.00
49122;BME280;35529;44.342;25.944;2022-11-02T04:05:04;100967.03;;;10.17;100.00
49122;BME280;35529;44.342;25.944;2022-11-02T04:07:31;100974.19;;;10.17;100.00
49122;BME280;35529;44.342;25.944;2022-11-02T04:10:18;100978.84;;;10.15;100.00
49122;BME280;35529;44.342;25.944;2022-11-02T04:12:46;100985.16;;;10.14;100.00
49122;BME280;35529;44.342;25.944;2022-11-02T04:15:31;100985.53;;;10.11;100.00
49122;BME280;35529;44.342;25.944;2022-11-02T04:17:57;100980.59;;;10.07;100.00
49122;BME280;35529;44.342;25.944;2022-11-02T04:20:55;100976.47;;;10.05;100.00
49122;BME280;35529;44.342;25.944;2022-11-02T04:23:21;100979.13;;;10.05;100.00
49122;BME280;35529;44.342;25.944;2022-11-02T04:26:06;100968.50;;;10.05;100.00
49122;BME280;35529;44.342;25.944;2022-11-02T04:28:32;100966.19;;;10.02;100.00
49122;BME280;35529;44.342;25.944;2022-11-02T04:30:58;100960.72;;;10.03;100.00
49122;BME280;35529;44.342;25.944;2022-11-02T04:33:26;100957.72;;;10.06;100.00
49122;BME280;35529;44.342;25.944;2022-11-02T04:36:02;100954.06;;;10.07;100.00
49122;BME280;35529;44.342;25.944;2022-11-02T04:38:29;100955.88;;;10.07;100.00
49122;BME280;35529;44.342;25.944;2022-11-02T04:41:11;100956.59;;;10.01;100.00
49122;BME280;35529;44.342;25.944;2022-11-02T04:44:06;100948.88;;;9.91;100.00
49122;BME280;35529;44.342;25.944;2022-11-02T04:46:33;100944.94;;;9.87;100.00
49122;BME280;35529;44.342;25.944;2022-11-02T04:49:00;100944.66;;;9.82;100.00
49122;BME280;35529;44.342;25.944;2022-11-02T04:51:26;100947.06;;;9.77;100.00
49122;BME280;35529;44.342;25.944;2022-11-02T04:53:53;100948.56;;;9.71;100.00
49122;BME280;35529;44.342;25.944;2022-11-02T04:56:20;100949.31;;;9.65;100.00
49122;BME280;35529;44.342;25.944;2022-11-02T04:58:50;100953.31;;;9.61;100.00
49122;BME280;35529;44.342;25.944;2022-11-02T05:01:16;100952.66;;;9.59;100.00
49122;BME280;35529;44.342;25.944;2022-11-02T05:03:43;100953.03;;;9.55;100.00
49122;BME280;35529;44.342;25.944;2022-11-02T05:06:11;100952.19;;;9.55;100.00
49122;BME280;35529;44.342;25.944;2022-11-02T05:08:37;100945.88;;;9.56;100.00
49122;BME280;35529;44.342;25.944;2022-11-02T05:11:03;100944.69;;;9.59;100.00
49122;BME280;35529;44.342;25.944;2022-11-02T05:13:29;100933.47;;;9.56;100.00
49122;BME280;35529;44.342;25.944;2022-11-02T05:15:56;100930.44;;;9.60;100.00
49122;BME280;35529;44.342;25.944;2022-11-02T05:18:22;100936.38;;;9.62;100.00
49122;BME280;35529;44.342;25.944;2022-11-02T05:20:52;100947.66;;;9.64;100.00
49122;BME280;35529;44.342;25.944;2022-11-02T05:23:19;100947.94;;;9.69;100.00
49122;BME280;35529;44.342;25.944;2022-11-02T05:25:55;100948.88;;;9.76;100.00
49122;BME280;35529;44.342;25.944;2022-11-02T05:28:22;100956.94;;;9.83;100.00
49122;BME280;35529;44.342;25.944;2022-11-02T05:30:48;100948.06;;;9.90;100.00
49122;BME280;35529;44.342;25.944;2022-11-02T05:33:14;100947.72;;;9.94;100.00
49122;BME280;35529;44.342;25.944;2022-11-02T05:35:40;100947.19;;;9.98;100.00
49122;BME280;35529;44.342;25.944;2022-11-02T05:38:06;100951.13;;;10.02;100.00
49122;BME280;35529;44.342;25.944;2022-11-02T05:40:33;100947.91;;;10.07;100.00
49122;BME280;35529;44.342;25.944;2022-11-02T05:42:59;100954.34;;;10.13;100.00
49122;BME280;35529;44.342;25.944;2022-11-02T05:45:26;100959.56;;;10.21;100.00
49122;BME280;35529;44.342;25.944;2022-11-02T05:47:52;100962.75;;;10.31;100.00
49122;BME280;35529;44.342;25.944;2022-11-02T05:50:18;100971.69;;;10.38;100.00
49122;BME280;35529;44.342;25.944;2022-11-02T05:52:44;100968.91;;;10.47;100.00
49122;BME280;35529;44.342;25.944;2022-11-02T05:55:11;100966.81;;;10.57;100.00
49122;BME280;35529;44.342;25.944;2022-11-02T05:57:37;100962.22;;;10.66;100.00
49122;BME280;35529;44.342;25.944;2022-11-02T06:00:04;100967.81;;;10.71;100.00
49122;BME280;35529;44.342;25.944;2022-11-02T06:02:32;100957.91;;;10.80;100.00
49122;BME280;35529;44.342;25.944;2022-11-02T06:04:58;100972.28;;;10.85;100.00
49122;BME280;35529;44.342;25.944;2022-11-02T06:07:24;100974.00;;;10.93;100.00
49122;BME280;35529;44.342;25.944;2022-11-02T06:09:50;100974.91;;;11.00;100.00
49122;BME280;35529;44.342;25.944;2022-11-02T06:12:20;100966.34;;;11.05;100.00
49122;BME280;35529;44.342;25.944;2022-11-02T06:14:46;100965.63;;;11.11;100.00
49122;BME280;35529;44.342;25.944;2022-11-02T06:17:12;100966.50;;;11.18;100.00
49122;BME280;35529;44.342;25.944;2022-11-02T06:19:38;100967.88;;;11.29;100.00
49122;BME280;35529;44.342;25.944;2022-11-02T06:22:04;100978.78;;;11.41;100.00
49122;BME280;35529;44.342;25.944;2022-11-02T06:24:30;100970.72;;;11.49;100.00
49122;BME280;35529;44.342;25.944;2022-11-02T06:26:56;100974.50;;;11.62;100.00
49122;BME280;35529;44.342;25.944;2022-11-02T06:29:25;100976.84;;;11.71;100.00
49122;BME280;35529;44.342;25.944;2022-11-02T06:31:51;100983.88;;;11.79;100.00
49122;BME280;35529;44.342;25.944;2022-11-02T06:34:17;100983.91;;;11.86;100.00
49122;BME280;35529;44.342;25.944;2022-11-02T06:36:43;100979.47;;;11.93;100.00
49122;BME280;35529;44.342;25.944;2022-11-02T06:39:09;100981.00;;;12.02;100.00
49122;BME280;35529;44.342;25.944;2022-11-02T06:41:35;100986.56;;;12.07;100.00
49122;BME280;35529;44.342;25.944;2022-11-02T06:44:01;100978.44;;;12.16;100.00
49122;BME280;35529;44.342;25.944;2022-11-02T06:46:27;100977.69;;;12.29;100.00
49122;BME280;35529;44.342;25.944;2022-11-02T06:48:54;100971.63;;;12.41;100.00
49122;BME280;35529;44.342;25.944;2022-11-02T06:51:20;100972.72;;;12.54;100.00
49122;BME280;35529;44.342;25.944;2022-11-02T06:53:46;100976.28;;;12.68;100.00
49122;BME280;35529;44.342;25.944;2022-11-02T06:56:12;100973.22;;;12.78;100.00
49122;BME280;35529;44.342;25.944;2022-11-02T06:58:38;100979.00;;;12.88;100.00
49122;BME280;35529;44.342;25.944;2022-11-02T07:01:05;100976.00;;;13.04;100.00
49122;BME280;35529;44.342;25.944;2022-11-02T07:03:34;100976.44;;;13.21;100.00
49122;BME280;35529;44.342;25.944;2022-11-02T07:06:00;100968.72;;;13.40;100.00
49122;BME280;35529;44.342;25.944;2022-11-02T07:08:27;100967.94;;;13.53;100.00
49122;BME280;35529;44.342;25.944;2022-11-02T07:10:54;100955.19;;;13.68;100.00
49122;BME280;35529;44.342;25.944;2022-11-02T07:13:20;100949.44;;;13.85;100.00
49122;BME280;35529;44.342;25.944;2022-11-02T07:15:49;100957.44;;;13.98;100.00
49122;BME280;35529;44.342;25.944;2022-11-02T07:18:15;100955.78;;;14.11;100.00
49122;BME280;35529;44.342;25.944;2022-11-02T07:20:41;100956.59;;;14.24;100.00
49122;BME280;35529;44.342;25.944;2022-11-02T07:23:07;100954.91;;;14.37;100.00
49122;BME280;35529;44.342;25.944;2022-11-02T07:25:34;100953.63;;;14.53;100.00
49122;BME280;35529;44.342;25.944;2022-11-02T07:28:01;100946.41;;;14.67;100.00
49122;BME280;35529;44.342;25.944;2022-11-02T07:30:28;100946.16;;;14.82;100.00
49122;BME280;35529;44.342;25.944;2022-11-02T07:32:55;100939.69;;;14.96;100.00
49122;BME280;35529;44.342;25.944;2022-11-02T07:35:21;100937.75;;;15.10;100.00
49122;BME280;35529;44.342;25.944;2022-11-02T07:37:54;100946.47;;;15.31;100.00
49122;BME280;35529;44.342;25.944;2022-11-02T07:40:20;100939.31;;;15.50;100.00
49122;BME280;35529;44.342;25.944;2022-11-02T07:42:47;100931.75;;;15.72;100.00
49122;BME280;35529;44.342;25.944;2022-11-02T07:45:13;100928.13;;;15.91;100.00
49122;BME280;35529;44.342;25.944;2022-11-02T07:47:45;100916.59;;;16.09;100.00
49122;BME280;35529;44.342;25.944;2022-11-02T07:50:12;100927.31;;;16.28;100.00
49122;BME280;35529;44.342;25.944;2022-11-02T07:52:57;100927.78;;;16.44;100.00
49122;BME280;35529;44.342;25.944;2022-11-02T07:55:27;100934.34;;;16.59;100.00
49122;BME280;35529;44.342;25.944;2022-11-02T08:00:20;100936.34;;;16.83;100.00
49122;BME280;35529;44.342;25.944;2022-11-02T08:02:46;100927.13;;;16.97;100.00
49122;BME280;35529;44.342;25.944;2022-11-02T08:05:12;100929.47;;;17.05;100.00
49122;BME280;35529;44.342;25.944;2022-11-02T08:07:38;100922.03;;;17.19;100.00
49122;BME280;35529;44.342;25.944;2022-11-02T08:10:04;100923.34;;;17.29;100.00
49122;BME280;35529;44.342;25.944;2022-11-02T08:12:30;100906.09;;;17.36;100.00
49122;BME280;35529;44.342;25.944;2022-11-02T08:14:57;100906.31;;;17.47;100.00
49122;BME280;35529;44.342;25.944;2022-11-02T08:17:23;100904.13;;;17.55;100.00
49122;BME280;35529;44.342;25.944;2022-11-02T08:19:49;100897.59;;;17.63;100.00
49122;BME280;35529;44.342;25.944;2022-11-02T08:22:15;100896.19;;;17.72;100.00
49122;BME280;35529;44.342;25.944;2022-11-02T08:24:41;100900.97;;;17.82;100.00
49122;BME280;35529;44.342;25.944;2022-11-02T08:27:07;100907.41;;;17.93;100.00
49122;BME280;35529;44.342;25.944;2022-11-02T08:29:33;100904.84;;;17.98;100.00
49122;BME280;35529;44.342;25.944;2022-11-02T08:32:01;100907.16;;;18.06;100.00
49122;BME280;35529;44.342;25.944;2022-11-02T08:34:28;100909.50;;;18.15;100.00
49122;BME280;35529;44.342;25.944;2022-11-02T08:36:54;100901.41;;;18.26;100.00
49122;BME280;35529;44.342;25.944;2022-11-02T08:39:20;100897.88;;;18.38;100.00
49122;BME280;35529;44.342;25.944;2022-11-02T08:41:46;100895.63;;;18.47;100.00
49122;BME280;35529;44.342;25.944;2022-11-02T08:44:12;100906.00;;;18.55;100.00
49122;BME280;35529;44.342;25.944;2022-11-02T08:46:38;100899.44;;;18.63;100.00
49122;BME280;35529;44.342;25.944;2022-11-02T08:49:04;100893.91;;;18.69;100.00
49122;BME280;35529;44.342;25.944;2022-11-02T08:51:30;100902.72;;;18.82;100.00
49122;BME280;35529;44.342;25.944;2022-11-02T08:53:56;100906.25;;;18.94;100.00
49122;BME280;35529;44.342;25.944;2022-11-02T08:56:22;100896.47;;;19.05;100.00
49122;BME280;35529;44.342;25.944;2022-11-02T08:58:49;100894.19;;;19.14;100.00
49122;BME280;35529;44.342;25.944;2022-11-02T09:01:15;100896.00;;;19.25;100.00
49122;BME280;35529;44.342;25.944;2022-11-02T09:03:41;100895.59;;;19.33;100.00
49122;BME280;35529;44.342;25.944;2022-11-02T09:06:07;100880.66;;;19.42;100.00
49122;BME280;35529;44.342;25.944;2022-11-02T09:08:33;100883.47;;;19.53;100.00
49122;BME280;35529;44.342;25.944;2022-11-02T09:11:00;100882.00;;;19.62;100.00
49122;BME280;35529;44.342;25.944;2022-11-02T09:13:27;100872.44;;;19.71;100.00
49122;BME280;35529;44.342;25.944;2022-11-02T09:15:54;100861.50;;;19.78;100.00
49122;BME280;35529;44.342;25.944;2022-11-02T09:18:20;100861.91;;;19.87;100.00
49122;BME280;35529;44.342;25.944;2022-11-02T09:20:46;100866.44;;;20.03;100.00
49122;BME280;35529;44.342;25.944;2022-11-02T09:23:16;100856.97;;;20.23;100.00
49122;BME280;35529;44.342;25.944;2022-11-02T09:25:43;100867.84;;;20.33;100.00
49122;BME280;35529;44.342;25.944;2022-11-02T09:28:09;100864.97;;;20.40;100.00
49122;BME280;35529;44.342;25.944;2022-11-02T09:30:35;100858.06;;;20.49;100.00
49122;BME280;35529;44.342;25.944;2022-11-02T09:33:02;100857.59;;;20.57;100.00
49122;BME280;35529;44.342;25.944;2022-11-02T09:35:32;100861.72;;;20.65;100.00
49122;BME280;35529;44.342;25.944;2022-11-02T09:37:59;100855.91;;;20.73;98.87
49122;BME280;35529;44.342;25.944;2022-11-02T09:40:27;100852.25;;;20.85;98.66
49122;BME280;35529;44.342;25.944;2022-11-02T09:42:58;100851.78;;;20.93;98.01
49122;BME280;35529;44.342;25.944;2022-11-02T09:45:25;100848.06;;;21.04;97.38
49122;BME280;35529;44.342;25.944;2022-11-02T09:47:54;100846.31;;;21.15;94.58
49122;BME280;35529;44.342;25.944;2022-11-02T09:50:22;100852.03;;;21.24;93.83
49122;BME280;35529;44.342;25.944;2022-11-02T09:52:52;100844.75;;;21.24;93.27
49122;BME280;35529;44.342;25.944;2022-11-02T09:55:22;100850.16;;;21.30;93.07
49122;BME280;35529;44.342;25.944;2022-11-02T09:57:53;100835.63;;;21.36;92.35
49122;BME280;35529;44.342;25.944;2022-11-02T10:00:20;100842.19;;;21.45;91.72
49122;BME280;35529;44.342;25.944;2022-11-02T10:05:15;100831.22;;;21.57;88.89
49122;BME280;35529;44.342;25.944;2022-11-02T10:17:38;100814.91;;;22.00;87.06
49122;BME280;35529;44.342;25.944;2022-11-02T10:20:27;100821.16;;;22.05;85.88
49122;BME280;35529;44.342;25.944;2022-11-02T10:22:53;100821.19;;;22.16;84.56
49122;BME280;35529;44.342;25.944;2022-11-02T10:25:20;100816.91;;;22.25;83.33
49122;BME280;35529;44.342;25.944;2022-11-02T10:27:48;100822.84;;;22.32;84.04
49122;BME280;35529;44.342;25.944;2022-11-02T10:30:17;100806.94;;;22.41;82.82
49122;BME280;35529;44.342;25.944;2022-11-02T10:32:43;100819.16;;;22.59;80.83
49122;BME280;35529;44.342;25.944;2022-11-02T10:35:16;100815.09;;;22.62;80.43
49122;BME280;35529;44.342;25.944;2022-11-02T10:42:55;100807.25;;;22.81;79.23
49122;BME280;35529;44.342;25.944;2022-11-02T10:48:00;100794.78;;;23.05;76.37
49122;BME280;35529;44.342;25.944;2022-11-02T10:53:00;100789.38;;;23.21;76.17
49122;BME280;35529;44.342;25.944;2022-11-02T10:57:54;100794.00;;;23.20;75.39
49122;BME280;35529;44.342;25.944;2022-11-02T11:00:32;100780.16;;;23.27;73.32
49122;BME280;35529;44.342;25.944;2022-11-02T11:03:31;100783.38;;;23.34;73.67
49122;BME280;35529;44.342;25.944;2022-11-02T11:06:00;100782.03;;;23.37;73.98
49122;BME280;35529;44.342;25.944;2022-11-02T11:10:53;100774.97;;;23.41;72.52
49122;BME280;35529;44.342;25.944;2022-11-02T11:13:21;100763.56;;;23.44;72.21
49122;BME280;35529;44.342;25.944;2022-11-02T11:15:50;100762.75;;;23.54;71.03
49122;BME280;35529;44.342;25.944;2022-11-02T11:18:17;100761.91;;;23.58;69.83
49122;BME280;35529;44.342;25.944;2022-11-02T11:20:44;100762.16;;;23.62;69.72
49122;BME280;35529;44.342;25.944;2022-11-02T11:25:40;100757.50;;;23.73;69.61
49122;BME280;35529;44.342;25.944;2022-11-02T11:28:20;100761.56;;;23.75;67.78
49122;BME280;35529;44.342;25.944;2022-11-02T11:30:47;100757.50;;;23.78;68.50
49122;BME280;35529;44.342;25.944;2022-11-02T11:33:25;100763.44;;;23.80;67.42
49122;BME280;35529;44.342;25.944;2022-11-02T11:35:52;100758.28;;;23.89;66.59
49122;BME280;35529;44.342;25.944;2022-11-02T11:38:18;100748.75;;;23.97;63.76
49122;BME280;35529;44.342;25.944;2022-11-02T11:40:47;100747.91;;;24.01;62.93
49122;BME280;35529;44.342;25.944;2022-11-02T11:43:23;100742.72;;;24.05;62.14
49122;BME280;35529;44.342;25.944;2022-11-02T11:45:53;100746.50;;;24.09;60.39
49122;BME280;35529;44.342;25.944;2022-11-02T11:50:52;100726.13;;;24.17;58.72
49122;BME280;35529;44.342;25.944;2022-11-02T11:53:20;100737.69;;;24.27;57.33
49122;BME280;35529;44.342;25.944;2022-11-02T11:55:48;100727.56;;;24.38;56.62
49122;BME280;35529;44.342;25.944;2022-11-02T12:00:42;100732.66;;;24.50;54.79
49122;BME280;35529;44.342;25.944;2022-11-02T12:03:09;100722.56;;;24.56;55.59
49122;BME280;35529;44.342;25.944;2022-11-02T12:10:46;100719.25;;;24.64;53.54
49122;BME280;35529;44.342;25.944;2022-11-02T12:26:24;100707.25;;;24.70;52.46
49122;BME280;35529;44.342;25.944;2022-11-02T12:31:41;100705.88;;;24.73;51.22
49122;BME280;35529;44.342;25.944;2022-11-02T12:39:20;100700.78;;;24.66;49.65
49122;BME280;35529;44.342;25.944;2022-11-02T12:41:56;100704.88;;;24.64;49.69
49122;BME280;35529;44.342;25.944;2022-11-02T12:55:26;100683.69;;;24.60;49.80
49122;BME280;35529;44.342;25.944;2022-11-02T12:57:55;100692.09;;;24.64;50.22
49122;BME280;35529;44.342;25.944;2022-11-02T13:00:23;100691.31;;;24.64;49.55
49122;BME280;35529;44.342;25.944;2022-11-02T13:05:19;100689.69;;;24.63;48.73
49122;BME280;35529;44.342;25.944;2022-11-02T13:13:01;100683.28;;;24.43;49.74
49122;BME280;35529;44.342;25.944;2022-11-02T13:15:28;100680.41;;;24.34;49.91
49122;BME280;35529;44.342;25.944;2022-11-02T13:17:56;100682.06;;;24.30;49.45
49122;BME280;35529;44.342;25.944;2022-11-02T13:22:54;100682.59;;;24.27;49.10
49122;BME280;35529;44.342;25.944;2022-11-02T13:25:26;100683.47;;;24.22;49.14
49122;BME280;35529;44.342;25.944;2022-11-02T13:27:55;100678.38;;;24.16;49.59
49122;BME280;35529;44.342;25.944;2022-11-02T13:30:23;100687.13;;;24.07;49.96
49122;BME280;35529;44.342;25.944;2022-11-02T13:32:51;100680.38;;;24.00;50.15
49122;BME280;35529;44.342;25.944;2022-11-02T13:35:23;100687.75;;;23.94;51.05
49122;BME280;35529;44.342;25.944;2022-11-02T13:38:14;100690.47;;;23.89;51.44
49122;BME280;35529;44.342;25.944;2022-11-02T13:40:42;100679.13;;;23.82;52.73
49122;BME280;35529;44.342;25.944;2022-11-02T13:51:22;100680.56;;;23.64;52.98
49122;BME280;35529;44.342;25.944;2022-11-02T13:53:52;100687.34;;;23.61;53.12
49122;BME280;35529;44.342;25.944;2022-11-02T13:56:21;100675.44;;;23.62;53.61
49122;BME280;35529;44.342;25.944;2022-11-02T13:58:48;100683.03;;;23.55;53.75
49122;BME280;35529;44.342;25.944;2022-11-02T14:01:18;100685.22;;;23.53;53.56
49122;BME280;35529;44.342;25.944;2022-11-02T14:03:47;100682.78;;;23.51;53.85
49122;BME280;35529;44.342;25.944;2022-11-02T14:06:14;100676.06;;;23.43;54.23
49122;BME280;35529;44.342;25.944;2022-11-02T14:08:41;100684.75;;;23.35;54.04
49122;BME280;35529;44.342;25.944;2022-11-02T14:19:51;100674.81;;;23.00;55.14
49122;BME280;35529;44.342;25.944;2022-11-02T14:32:03;100676.50;;;22.70;56.67
49122;BME280;35529;44.342;25.944;2022-11-02T14:34:35;100678.69;;;22.57;57.40
49122;BME280;35529;44.342;25.944;2022-11-02T14:47:13;100680.22;;;21.81;66.82
49122;BME280;35529;44.342;25.944;2022-11-02T14:52:26;100679.56;;;21.48;70.97
49122;BME280;35529;44.342;25.944;2022-11-02T15:00:15;100684.50;;;21.03;74.28
49122;BME280;35529;44.342;25.944;2022-11-02T15:02:41;100680.63;;;20.89;75.00
49122;BME280;35529;44.342;25.944;2022-11-02T15:05:08;100691.31;;;20.73;75.66
49122;BME280;35529;44.342;25.944;2022-11-02T15:08:22;100683.59;;;20.55;76.71
49122;BME280;35529;44.342;25.944;2022-11-02T15:10:38;100685.53;;;20.27;78.18
49122;BME280;35529;44.342;25.944;2022-11-02T15:20:43;100696.72;;;19.64;85.62
49122;BME280;35529;44.342;25.944;2022-11-02T15:23:13;100693.34;;;19.52;86.45
49122;BME280;35529;44.342;25.944;2022-11-02T15:25:45;100698.03;;;19.39;87.32
49122;BME280;35529;44.342;25.944;2022-11-02T15:28:14;100693.66;;;19.33;86.97
49122;BME280;35529;44.342;25.944;2022-11-02T15:31:00;100700.03;;;19.27;87.17
49122;BME280;35529;44.342;25.944;2022-11-02T15:35:54;100701.88;;;19.04;89.12
49122;BME280;35529;44.342;25.944;2022-11-02T15:38:23;100702.22;;;18.91;90.07
49122;BME280;35529;44.342;25.944;2022-11-02T15:41:15;100708.22;;;18.81;91.17
49122;BME280;35529;44.342;25.944;2022-11-02T15:43:51;100708.91;;;18.71;92.49